Andrews, Indiana
Current Conditions -  °F | °C
As of 4:15 PM on Tuesday 21 Oct 2014 (Local Time) from KHHG Reporting Station
Overcast Overcast  
Wind Chill: 11°   Ceiling: 4500
Heat Index: 11°   Visibility: 10mi
Dew Point:   Wind: 9mph
Humidity: 70%   Direction: 350°N
Pressure: 30.1"   Gusts: NA
Location:  40.86°N, 85.6°W
Report Text: KHHG 212015Z AUTO 35008KT 10SM SCT027 SCT032 OVC045 11/06 A3010 RMK AO2 T01090057
Loading
Personal Weather Stations






























Interactive Weather Map
Tropical Storm Tracking
New forecast layout! Learn more

10-Day Weather Forecast

Advertisements
Track Severe Weather on mobile